sensor_id;sensor_type;location;lat;lon;timestamp;temperature;humidity
30304;DHT22;17112;48.636;10.152;2023-04-08T00:01:22;10.20;63.50
30304;DHT22;17112;48.636;10.152;2023-04-08T00:03:48;10.10;64.80
30304;DHT22;17112;48.636;10.152;2023-04-08T00:06:13;10.10;63.40
30304;DHT22;17112;48.636;10.152;2023-04-08T00:08:39;10.10;63.90
30304;DHT22;17112;48.636;10.152;2023-04-08T00:11:05;10.10;63.40
30304;DHT22;17112;48.636;10.152;2023-04-08T00:13:30;10.00;63.50
30304;DHT22;17112;48.636;10.152;2023-04-08T00:15:57;10.00;63.80
30304;DHT22;17112;48.636;10.152;2023-04-08T00:18:22;10.00;64.10
30304;DHT22;17112;48.636;10.152;2023-04-08T00:20:48;10.00;63.80
30304;DHT22;17112;48.636;10.152;2023-04-08T00:23:13;9.90;63.70
30304;DHT22;17112;48.636;10.152;2023-04-08T00:25:40;9.90;63.70
30304;DHT22;17112;48.636;10.152;2023-04-08T00:28:05;9.90;64.40
30304;DHT22;17112;48.636;10.152;2023-04-08T00:30:31;9.90;64.50
30304;DHT22;17112;48.636;10.152;2023-04-08T00:32:57;9.90;64.60
30304;DHT22;17112;48.636;10.152;2023-04-08T00:35:24;9.90;64.40
30304;DHT22;17112;48.636;10.152;2023-04-08T00:37:50;9.80;64.30
30304;DHT22;17112;48.636;10.152;2023-04-08T00:40:16;9.80;64.80
30304;DHT22;17112;48.636;10.152;2023-04-08T00:42:41;9.80;65.00
30304;DHT22;17112;48.636;10.152;2023-04-08T00:45:07;9.80;64.90
30304;DHT22;17112;48.636;10.152;2023-04-08T00:47:34;9.80;64.30
30304;DHT22;17112;48.636;10.152;2023-04-08T00:50:00;9.80;64.60
30304;DHT22;17112;48.636;10.152;2023-04-08T00:52:26;9.80;64.90
30304;DHT22;17112;48.636;10.152;2023-04-08T00:54:52;9.80;64.70
30304;DHT22;17112;48.636;10.152;2023-04-08T00:57:17;9.80;64.70
30304;DHT22;17112;48.636;10.152;2023-04-08T00:59:43;9.80;64.50
30304;DHT22;17112;48.636;10.152;2023-04-08T01:04:58;9.70;65.50
30304;DHT22;17112;48.636;10.152;2023-04-08T01:07:33;9.70;65.60
30304;DHT22;17112;48.636;10.152;2023-04-08T01:10:28;9.70;65.00
30304;DHT22;17112;48.636;10.152;2023-04-08T01:12:56;9.70;66.40
30304;DHT22;17112;48.636;10.152;2023-04-08T01:15:25;9.70;65.00
30304;DHT22;17112;48.636;10.152;2023-04-08T01:17:55;9.70;64.80
30304;DHT22;17112;48.636;10.152;2023-04-08T01:20:24;9.70;64.80
30304;DHT22;17112;48.636;10.152;2023-04-08T01:25:31;9.70;64.60
30304;DHT22;17112;48.636;10.152;2023-04-08T01:28:03;9.70;65.00
30304;DHT22;17112;48.636;10.152;2023-04-08T01:30:30;9.70;64.60
30304;DHT22;17112;48.636;10.152;2023-04-08T01:32:57;9.70;65.00
30304;DHT22;17112;48.636;10.152;2023-04-08T01:35:24;9.60;65.20
30304;DHT22;17112;48.636;10.152;2023-04-08T01:37:51;9.60;65.40
30304;DHT22;17112;48.636;10.152;2023-04-08T01:40:19;9.70;65.40
30304;DHT22;17112;48.636;10.152;2023-04-08T01:42:47;9.70;65.40
30304;DHT22;17112;48.636;10.152;2023-04-08T01:45:13;9.70;65.60
30304;DHT22;17112;48.636;10.152;2023-04-08T01:47:41;9.70;65.10
30304;DHT22;17112;48.636;10.152;2023-04-08T01:50:08;9.70;65.20
30304;DHT22;17112;48.636;10.152;2023-04-08T01:52:34;9.70;65.00
30304;DHT22;17112;48.636;10.152;2023-04-08T01:55:02;9.70;65.40
30304;DHT22;17112;48.636;10.152;2023-04-08T01:57:31;9.70;65.70
30304;DHT22;17112;48.636;10.152;2023-04-08T02:00:02;9.70;66.00
30304;DHT22;17112;48.636;10.152;2023-04-08T02:02:30;9.70;66.10
30304;DHT22;17112;48.636;10.152;2023-04-08T02:04:57;9.70;66.00
30304;DHT22;17112;48.636;10.152;2023-04-08T02:07:23;9.70;65.90
30304;DHT22;17112;48.636;10.152;2023-04-08T02:09:49;9.70;65.80
30304;DHT22;17112;48.636;10.152;2023-04-08T02:12:15;9.80;65.80
30304;DHT22;17112;48.636;10.152;2023-04-08T02:14:41;9.80;65.70
30304;DHT22;17112;48.636;10.152;2023-04-08T02:17:13;9.80;65.70
30304;DHT22;17112;48.636;10.152;2023-04-08T02:19:56;9.80;65.90
30304;DHT22;17112;48.636;10.152;2023-04-08T02:22:52;9.80;66.00
30304;DHT22;17112;48.636;10.152;2023-04-08T02:25:23;9.80;66.10
30304;DHT22;17112;48.636;10.152;2023-04-08T02:27:51;9.80;65.50
30304;DHT22;17112;48.636;10.152;2023-04-08T02:30:18;9.80;65.30
30304;DHT22;17112;48.636;10.152;2023-04-08T02:32:45;9.80;65.60
30304;DHT22;17112;48.636;10.152;2023-04-08T02:35:12;9.80;65.70
30304;DHT22;17112;48.636;10.152;2023-04-08T02:37:38;9.70;65.60
30304;DHT22;17112;48.636;10.152;2023-04-08T02:40:25;9.70;65.60
30304;DHT22;17112;48.636;10.152;2023-04-08T02:42:51;9.70;66.10
30304;DHT22;17112;48.636;10.152;2023-04-08T02:45:18;9.70;65.40
30304;DHT22;17112;48.636;10.152;2023-04-08T02:47:43;9.60;65.40
30304;DHT22;17112;48.636;10.152;2023-04-08T02:50:09;9.60;65.40
30304;DHT22;17112;48.636;10.152;2023-04-08T02:52:35;9.60;65.60
30304;DHT22;17112;48.636;10.152;2023-04-08T02:55:01;9.50;65.70
30304;DHT22;17112;48.636;10.152;2023-04-08T02:57:26;9.50;65.60
30304;DHT22;17112;48.636;10.152;2023-04-08T02:59:52;9.50;65.60
30304;DHT22;17112;48.636;10.152;2023-04-08T03:02:17;9.50;65.50
30304;DHT22;17112;48.636;10.152;2023-04-08T03:04:43;9.40;65.70
30304;DHT22;17112;48.636;10.152;2023-04-08T03:07:09;9.40;65.90
30304;DHT22;17112;48.636;10.152;2023-04-08T03:09:35;9.40;65.90
30304;DHT22;17112;48.636;10.152;2023-04-08T03:12:00;9.40;65.80
30304;DHT22;17112;48.636;10.152;2023-04-08T03:14:26;9.30;65.90
30304;DHT22;17112;48.636;10.152;2023-04-08T03:16:52;9.30;65.90
30304;DHT22;17112;48.636;10.152;2023-04-08T03:19:17;9.30;66.00
30304;DHT22;17112;48.636;10.152;2023-04-08T03:21:43;9.30;66.00
30304;DHT22;17112;48.636;10.152;2023-04-08T03:24:09;9.30;66.00
30304;DHT22;17112;48.636;10.152;2023-04-08T03:26:34;9.30;66.00
30304;DHT22;17112;48.636;10.152;2023-04-08T03:29:00;9.30;66.10
30304;DHT22;17112;48.636;10.152;2023-04-08T03:31:26;9.20;66.10
30304;DHT22;17112;48.636;10.152;2023-04-08T03:33:52;9.20;66.10
30304;DHT22;17112;48.636;10.152;2023-04-08T03:36:17;9.20;66.20
30304;DHT22;17112;48.636;10.152;2023-04-08T03:38:43;9.20;66.20
30304;DHT22;17112;48.636;10.152;2023-04-08T03:41:09;9.20;66.20
30304;DHT22;17112;48.636;10.152;2023-04-08T03:43:34;9.20;66.30
30304;DHT22;17112;48.636;10.152;2023-04-08T03:46:01;9.20;66.50
30304;DHT22;17112;48.636;10.152;2023-04-08T03:48:26;9.20;66.60
30304;DHT22;17112;48.636;10.152;2023-04-08T03:50:52;9.20;66.80
30304;DHT22;17112;48.636;10.152;2023-04-08T03:53:18;9.20;67.00
30304;DHT22;17112;48.636;10.152;2023-04-08T03:55:43;9.20;66.90
30304;DHT22;17112;48.636;10.152;2023-04-08T03:58:09;9.20;67.10
30304;DHT22;17112;48.636;10.152;2023-04-08T04:00:35;9.30;67.10
30304;DHT22;17112;48.636;10.152;2023-04-08T04:03:01;9.30;67.70
30304;DHT22;17112;48.636;10.152;2023-04-08T04:05:27;9.30;67.60
30304;DHT22;17112;48.636;10.152;2023-04-08T04:07:53;9.40;67.30
30304;DHT22;17112;48.636;10.152;2023-04-08T04:10:19;9.40;67.50
30304;DHT22;17112;48.636;10.152;2023-04-08T04:12:45;9.40;67.70
30304;DHT22;17112;48.636;10.152;2023-04-08T04:15:11;9.50;67.90
30304;DHT22;17112;48.636;10.152;2023-04-08T04:17:37;9.50;67.80
30304;DHT22;17112;48.636;10.152;2023-04-08T04:20:04;9.50;67.80
30304;DHT22;17112;48.636;10.152;2023-04-08T04:22:30;9.50;68.00
30304;DHT22;17112;48.636;10.152;2023-04-08T04:24:56;9.60;67.90
30304;DHT22;17112;48.636;10.152;2023-04-08T04:27:22;9.60;67.90
30304;DHT22;17112;48.636;10.152;2023-04-08T04:29:47;9.60;67.90
30304;DHT22;17112;48.636;10.152;2023-04-08T04:32:13;9.60;67.90
30304;DHT22;17112;48.636;10.152;2023-04-08T04:34:39;9.70;68.00
30304;DHT22;17112;48.636;10.152;2023-04-08T04:37:04;9.70;67.90
30304;DHT22;17112;48.636;10.152;2023-04-08T04:39:33;9.70;67.90
30304;DHT22;17112;48.636;10.152;2023-04-08T04:42:06;9.90;67.80
30304;DHT22;17112;48.636;10.152;2023-04-08T04:44:32;9.80;67.40
30304;DHT22;17112;48.636;10.152;2023-04-08T04:46:58;9.80;67.50
30304;DHT22;17112;48.636;10.152;2023-04-08T04:49:25;9.80;67.40
30304;DHT22;17112;48.636;10.152;2023-04-08T04:51:50;9.80;67.30
30304;DHT22;17112;48.636;10.152;2023-04-08T04:54:16;9.80;67.40
30304;DHT22;17112;48.636;10.152;2023-04-08T04:56:41;9.80;67.50
30304;DHT22;17112;48.636;10.152;2023-04-08T04:59:07;9.80;67.30
30304;DHT22;17112;48.636;10.152;2023-04-08T05:01:33;9.90;67.40
30304;DHT22;17112;48.636;10.152;2023-04-08T05:03:59;9.90;68.00
30304;DHT22;17112;48.636;10.152;2023-04-08T05:06:25;9.90;67.60
30304;DHT22;17112;48.636;10.152;2023-04-08T05:08:51;9.90;67.60
30304;DHT22;17112;48.636;10.152;2023-04-08T05:11:17;9.90;67.70
30304;DHT22;17112;48.636;10.152;2023-04-08T05:13:44;9.90;67.70
30304;DHT22;17112;48.636;10.152;2023-04-08T05:16:09;10.00;67.80
30304;DHT22;17112;48.636;10.152;2023-04-08T05:18:35;10.00;67.70
30304;DHT22;17112;48.636;10.152;2023-04-08T05:21:01;10.00;67.60
30304;DHT22;17112;48.636;10.152;2023-04-08T05:23:27;10.00;67.50
30304;DHT22;17112;48.636;10.152;2023-04-08T05:25:53;10.10;67.30
30304;DHT22;17112;48.636;10.152;2023-04-08T05:28:19;10.10;67.40
30304;DHT22;17112;48.636;10.152;2023-04-08T05:30:51;10.10;67.40
30304;DHT22;17112;48.636;10.152;2023-04-08T05:33:17;10.10;67.80
30304;DHT22;17112;48.636;10.152;2023-04-08T05:35:43;10.10;67.50
30304;DHT22;17112;48.636;10.152;2023-04-08T05:38:09;10.20;67.70
30304;DHT22;17112;48.636;10.152;2023-04-08T05:40:35;10.20;67.20
30304;DHT22;17112;48.636;10.152;2023-04-08T05:43:00;10.20;67.20
30304;DHT22;17112;48.636;10.152;2023-04-08T05:45:29;10.20;66.80
30304;DHT22;17112;48.636;10.152;2023-04-08T05:47:55;10.20;67.00
30304;DHT22;17112;48.636;10.152;2023-04-08T05:50:21;10.20;67.30
30304;DHT22;17112;48.636;10.152;2023-04-08T05:52:46;10.10;67.10
30304;DHT22;17112;48.636;10.152;2023-04-08T05:55:13;10.10;67.40
30304;DHT22;17112;48.636;10.152;2023-04-08T05:57:39;10.10;66.90
30304;DHT22;17112;48.636;10.152;2023-04-08T06:00:06;10.10;67.10
30304;DHT22;17112;48.636;10.152;2023-04-08T06:02:33;10.10;67.00
30304;DHT22;17112;48.636;10.152;2023-04-08T06:04:59;10.10;67.20
30304;DHT22;17112;48.636;10.152;2023-04-08T06:07:25;10.20;67.10
30304;DHT22;17112;48.636;10.152;2023-04-08T06:09:50;10.20;67.40
30304;DHT22;17112;48.636;10.152;2023-04-08T06:12:16;10.20;67.50
30304;DHT22;17112;48.636;10.152;2023-04-08T06:14:42;10.20;67.50
30304;DHT22;17112;48.636;10.152;2023-04-08T06:17:07;10.20;67.70
30304;DHT22;17112;48.636;10.152;2023-04-08T06:19:34;10.20;67.50
30304;DHT22;17112;48.636;10.152;2023-04-08T06:21:59;10.30;67.30
30304;DHT22;17112;48.636;10.152;2023-04-08T06:24:26;10.30;67.20
30304;DHT22;17112;48.636;10.152;2023-04-08T06:26:52;10.30;67.20
30304;DHT22;17112;48.636;10.152;2023-04-08T06:29:22;10.30;67.60
30304;DHT22;17112;48.636;10.152;2023-04-08T06:31:49;10.30;67.50
30304;DHT22;17112;48.636;10.152;2023-04-08T06:34:15;10.30;67.50
30304;DHT22;17112;48.636;10.152;2023-04-08T06:36:40;10.30;67.70
30304;DHT22;17112;48.636;10.152;2023-04-08T06:39:06;10.30;68.20
30304;DHT22;17112;48.636;10.152;2023-04-08T06:41:32;10.40;67.80
30304;DHT22;17112;48.636;10.152;2023-04-08T06:43:58;10.50;67.80
30304;DHT22;17112;48.636;10.152;2023-04-08T06:46:24;10.50;67.60
30304;DHT22;17112;48.636;10.152;2023-04-08T06:48:50;10.60;67.70
30304;DHT22;17112;48.636;10.152;2023-04-08T06:51:15;10.70;67.30
30304;DHT22;17112;48.636;10.152;2023-04-08T06:53:41;10.70;67.00
30304;DHT22;17112;48.636;10.152;2023-04-08T06:56:07;10.80;67.10
30304;DHT22;17112;48.636;10.152;2023-04-08T06:58:32;10.80;67.00
30304;DHT22;17112;48.636;10.152;2023-04-08T07:00:59;10.80;66.70
30304;DHT22;17112;48.636;10.152;2023-04-08T07:03:25;10.90;66.40
30304;DHT22;17112;48.636;10.152;2023-04-08T07:05:51;10.90;66.20
30304;DHT22;17112;48.636;10.152;2023-04-08T07:08:17;10.90;65.80
30304;DHT22;17112;48.636;10.152;2023-04-08T07:10:43;11.00;65.80
30304;DHT22;17112;48.636;10.152;2023-04-08T07:13:09;11.00;65.90
30304;DHT22;17112;48.636;10.152;2023-04-08T07:15:35;11.10;65.70
30304;DHT22;17112;48.636;10.152;2023-04-08T07:18:01;11.10;65.40
30304;DHT22;17112;48.636;10.152;2023-04-08T07:20:27;11.20;65.20
30304;DHT22;17112;48.636;10.152;2023-04-08T07:22:53;11.20;64.90
30304;DHT22;17112;48.636;10.152;2023-04-08T07:25:18;11.30;64.60
30304;DHT22;17112;48.636;10.152;2023-04-08T07:27:44;11.30;64.30
30304;DHT22;17112;48.636;10.152;2023-04-08T07:30:10;11.30;64.00
30304;DHT22;17112;48.636;10.152;2023-04-08T07:32:36;11.30;63.20
30304;DHT22;17112;48.636;10.152;2023-04-08T07:35:02;11.40;63.30
30304;DHT22;17112;48.636;10.152;2023-04-08T07:37:28;11.40;63.30
30304;DHT22;17112;48.636;10.152;2023-04-08T07:39:53;11.40;63.00
30304;DHT22;17112;48.636;10.152;2023-04-08T07:42:19;11.40;63.00
30304;DHT22;17112;48.636;10.152;2023-04-08T07:44:45;11.50;63.20
30304;DHT22;17112;48.636;10.152;2023-04-08T07:47:11;11.50;62.80
30304;DHT22;17112;48.636;10.152;2023-04-08T07:49:37;11.60;62.50
30304;DHT22;17112;48.636;10.152;2023-04-08T07:52:04;11.60;62.30
30304;DHT22;17112;48.636;10.152;2023-04-08T07:54:31;11.70;62.20
30304;DHT22;17112;48.636;10.152;2023-04-08T07:56:59;11.70;61.90
30304;DHT22;17112;48.636;10.152;2023-04-08T07:59:26;11.70;61.60
30304;DHT22;17112;48.636;10.152;2023-04-08T08:01:52;11.80;61.80
30304;DHT22;17112;48.636;10.152;2023-04-08T08:04:18;11.90;61.50
30304;DHT22;17112;48.636;10.152;2023-04-08T08:06:43;11.90;61.10
30304;DHT22;17112;48.636;10.152;2023-04-08T08:09:09;11.90;61.10
30304;DHT22;17112;48.636;10.152;2023-04-08T08:11:35;12.00;60.70
30304;DHT22;17112;48.636;10.152;2023-04-08T08:14:01;12.00;60.00
30304;DHT22;17112;48.636;10.152;2023-04-08T08:16:30;12.00;60.00
30304;DHT22;17112;48.636;10.152;2023-04-08T08:18:57;12.00;59.70
30304;DHT22;17112;48.636;10.152;2023-04-08T08:21:22;12.10;59.80
30304;DHT22;17112;48.636;10.152;2023-04-08T08:23:50;12.10;59.30
30304;DHT22;17112;48.636;10.152;2023-04-08T08:26:16;12.20;59.40
30304;DHT22;17112;48.636;10.152;2023-04-08T08:28:42;12.20;59.10
30304;DHT22;17112;48.636;10.152;2023-04-08T08:31:07;12.30;58.80
30304;DHT22;17112;48.636;10.152;2023-04-08T08:33:33;12.30;58.50
30304;DHT22;17112;48.636;10.152;2023-04-08T08:35:59;12.40;58.70
30304;DHT22;17112;48.636;10.152;2023-04-08T08:38:25;12.50;58.10
30304;DHT22;17112;48.636;10.152;2023-04-08T08:40:54;12.50;57.30
30304;DHT22;17112;48.636;10.152;2023-04-08T08:43:21;12.50;56.60
30304;DHT22;17112;48.636;10.152;2023-04-08T08:45:47;12.60;56.90
30304;DHT22;17112;48.636;10.152;2023-04-08T08:48:12;12.60;56.30
30304;DHT22;17112;48.636;10.152;2023-04-08T08:50:39;12.70;56.30
30304;DHT22;17112;48.636;10.152;2023-04-08T08:53:04;12.70;56.40
30304;DHT22;17112;48.636;10.152;2023-04-08T08:55:31;12.60;55.80
30304;DHT22;17112;48.636;10.152;2023-04-08T08:57:59;12.60;55.30
30304;DHT22;17112;48.636;10.152;2023-04-08T09:03:21;12.50;54.80
30304;DHT22;17112;48.636;10.152;2023-04-08T09:11:17;12.40;54.30
30304;DHT22;17112;48.636;10.152;2023-04-08T09:13:44;12.40;53.90
30304;DHT22;17112;48.636;10.152;2023-04-08T09:16:12;12.40;54.40
30304;DHT22;17112;48.636;10.152;2023-04-08T09:18:39;12.40;54.40
30304;DHT22;17112;48.636;10.152;2023-04-08T09:21:09;12.50;54.70
30304;DHT22;17112;48.636;10.152;2023-04-08T09:23:42;12.60;54.40
30304;DHT22;17112;48.636;10.152;2023-04-08T09:26:16;12.60;53.30
30304;DHT22;17112;48.636;10.152;2023-04-08T09:28:56;12.70;53.20
30304;DHT22;17112;48.636;10.152;2023-04-08T09:31:24;12.70;53.50
30304;DHT22;17112;48.636;10.152;2023-04-08T09:33:53;12.70;53.60
30304;DHT22;17112;48.636;10.152;2023-04-08T09:36:19;12.80;53.60
30304;DHT22;17112;48.636;10.152;2023-04-08T09:38:45;12.80;54.40
30304;DHT22;17112;48.636;10.152;2023-04-08T09:41:15;12.80;53.50
30304;DHT22;17112;48.636;10.152;2023-04-08T09:43:47;12.90;53.30
30304;DHT22;17112;48.636;10.152;2023-04-08T09:46:16;12.90;53.30
30304;DHT22;17112;48.636;10.152;2023-04-08T09:48:49;13.00;53.50
30304;DHT22;17112;48.636;10.152;2023-04-08T09:51:17;13.00;53.40
30304;DHT22;17112;48.636;10.152;2023-04-08T09:53:52;13.00;53.80
30304;DHT22;17112;48.636;10.152;2023-04-08T09:56:20;13.00;53.20
30304;DHT22;17112;48.636;10.152;2023-04-08T09:59:01;13.10;53.40
30304;DHT22;17112;48.636;10.152;2023-04-08T10:01:38;13.10;52.10
30304;DHT22;17112;48.636;10.152;2023-04-08T10:04:11;13.10;51.70
30304;DHT22;17112;48.636;10.152;2023-04-08T10:06:37;13.00;51.40
30304;DHT22;17112;48.636;10.152;2023-04-08T10:09:03;13.00;51.90
30304;DHT22;17112;48.636;10.152;2023-04-08T10:11:30;13.00;52.10
30304;DHT22;17112;48.636;10.152;2023-04-08T10:13:56;13.00;52.40
30304;DHT22;17112;48.636;10.152;2023-04-08T10:16:24;12.90;52.40
30304;DHT22;17112;48.636;10.152;2023-04-08T10:18:52;12.90;52.00
30304;DHT22;17112;48.636;10.152;2023-04-08T10:21:37;12.90;50.80
30304;DHT22;17112;48.636;10.152;2023-04-08T10:24:09;12.80;50.80
30304;DHT22;17112;48.636;10.152;2023-04-08T10:26:44;12.80;51.00
30304;DHT22;17112;48.636;10.152;2023-04-08T10:31:51;12.80;50.80
30304;DHT22;17112;48.636;10.152;2023-04-08T10:34:22;12.70;51.30
30304;DHT22;17112;48.636;10.152;2023-04-08T10:36:49;12.70;50.50
30304;DHT22;17112;48.636;10.152;2023-04-08T10:39:15;12.80;50.60
30304;DHT22;17112;48.636;10.152;2023-04-08T10:41:45;12.70;49.40
30304;DHT22;17112;48.636;10.152;2023-04-08T10:44:15;12.70;49.60
30304;DHT22;17112;48.636;10.152;2023-04-08T10:46:45;12.60;49.80
30304;DHT22;17112;48.636;10.152;2023-04-08T10:49:11;12.60;50.40
30304;DHT22;17112;48.636;10.152;2023-04-08T10:51:38;12.50;50.20
30304;DHT22;17112;48.636;10.152;2023-04-08T10:54:09;12.60;50.00
30304;DHT22;17112;48.636;10.152;2023-04-08T10:56:49;12.60;49.60
30304;DHT22;17112;48.636;10.152;2023-04-08T10:59:17;12.50;50.10
30304;DHT22;17112;48.636;10.152;2023-04-08T11:01:51;12.50;50.70
30304;DHT22;17112;48.636;10.152;2023-04-08T11:04:17;12.60;50.10
30304;DHT22;17112;48.636;10.152;2023-04-08T11:06:45;12.60;50.50
30304;DHT22;17112;48.636;10.152;2023-04-08T11:09:12;12.60;50.90
30304;DHT22;17112;48.636;10.152;2023-04-08T11:11:41;12.70;50.90
30304;DHT22;17112;48.636;10.152;2023-04-08T11:14:07;12.70;50.50
30304;DHT22;17112;48.636;10.152;2023-04-08T11:16:33;12.70;50.00
30304;DHT22;17112;48.636;10.152;2023-04-08T11:19:02;12.70;50.70
30304;DHT22;17112;48.636;10.152;2023-04-08T11:21:38;12.80;50.50
30304;DHT22;17112;48.636;10.152;2023-04-08T11:24:11;12.80;50.80
30304;DHT22;17112;48.636;10.152;2023-04-08T11:26:38;12.80;50.40
30304;DHT22;17112;48.636;10.152;2023-04-08T11:29:05;12.70;50.40
30304;DHT22;17112;48.636;10.152;2023-04-08T11:31:31;12.70;50.20
30304;DHT22;17112;48.636;10.152;2023-04-08T11:33:57;12.70;50.30
30304;DHT22;17112;48.636;10.152;2023-04-08T11:36:23;12.60;50.00
30304;DHT22;17112;48.636;10.152;2023-04-08T11:38:48;12.60;50.00
30304;DHT22;17112;48.636;10.152;2023-04-08T11:41:15;12.60;50.10
30304;DHT22;17112;48.636;10.152;2023-04-08T11:43:53;12.50;50.30
30304;DHT22;17112;48.636;10.152;2023-04-08T11:46:19;12.50;50.40
30304;DHT22;17112;48.636;10.152;2023-04-08T11:49:06;12.50;50.80
30304;DHT22;17112;48.636;10.152;2023-04-08T11:51:33;12.50;49.90
30304;DHT22;17112;48.636;10.152;2023-04-08T11:54:03;12.60;50.70
30304;DHT22;17112;48.636;10.152;2023-04-08T11:56:35;12.60;50.80
30304;DHT22;17112;48.636;10.152;2023-04-08T11:59:08;12.60;50.80
30304;DHT22;17112;48.636;10.152;2023-04-08T12:01:34;12.60;50.90
30304;DHT22;17112;48.636;10.152;2023-04-08T12:04:00;12.60;50.50
30304;DHT22;17112;48.636;10.152;2023-04-08T12:06:27;12.50;50.50
30304;DHT22;17112;48.636;10.152;2023-04-08T12:08:54;12.50;50.80
30304;DHT22;17112;48.636;10.152;2023-04-08T12:11:20;12.50;51.00
30304;DHT22;17112;48.636;10.152;2023-04-08T12:13:46;12.50;51.30
30304;DHT22;17112;48.636;10.152;2023-04-08T12:16:14;12.50;51.40
30304;DHT22;17112;48.636;10.152;2023-04-08T12:18:39;12.60;51.40
30304;DHT22;17112;48.636;10.152;2023-04-08T12:21:05;12.60;50.90
30304;DHT22;17112;48.636;10.152;2023-04-08T12:23:31;12.60;50.90
30304;DHT22;17112;48.636;10.152;2023-04-08T12:25:57;12.60;51.30
30304;DHT22;17112;48.636;10.152;2023-04-08T12:28:22;12.60;51.50
30304;DHT22;17112;48.636;10.152;2023-04-08T12:30:48;12.60;51.40
30304;DHT22;17112;48.636;10.152;2023-04-08T12:33:14;12.60;51.50
30304;DHT22;17112;48.636;10.152;2023-04-08T12:35:40;12.60;51.50
30304;DHT22;17112;48.636;10.152;2023-04-08T12:38:05;12.70;51.60
30304;DHT22;17112;48.636;10.152;2023-04-08T12:40:31;12.60;51.60
30304;DHT22;17112;48.636;10.152;2023-04-08T12:42:56;12.60;51.60
30304;DHT22;17112;48.636;10.152;2023-04-08T12:45:22;12.60;51.60
30304;DHT22;17112;48.636;10.152;2023-04-08T12:47:48;12.70;51.80
30304;DHT22;17112;48.636;10.152;2023-04-08T12:50:13;12.70;51.90
30304;DHT22;17112;48.636;10.152;2023-04-08T12:52:40;12.60;51.70
30304;DHT22;17112;48.636;10.152;2023-04-08T12:55:06;12.70;52.00
30304;DHT22;17112;48.636;10.152;2023-04-08T12:57:32;12.70;51.90
30304;DHT22;17112;48.636;10.152;2023-04-08T12:59:58;12.70;52.00
30304;DHT22;17112;48.636;10.152;2023-04-08T13:02:23;12.70;52.20
30304;DHT22;17112;48.636;10.152;2023-04-08T13:04:52;12.70;52.40
30304;DHT22;17112;48.636;10.152;2023-04-08T13:07:19;12.80;52.50
30304;DHT22;17112;48.636;10.152;2023-04-08T13:09:45;12.80;52.50
30304;DHT22;17112;48.636;10.152;2023-04-08T13:12:10;12.90;52.40
30304;DHT22;17112;48.636;10.152;2023-04-08T13:14:37;12.90;52.30
30304;DHT22;17112;48.636;10.152;2023-04-08T13:17:03;12.90;52.30
30304;DHT22;17112;48.636;10.152;2023-04-08T13:19:29;12.90;52.10
30304;DHT22;17112;48.636;10.152;2023-04-08T13:21:55;12.90;51.90
30304;DHT22;17112;48.636;10.152;2023-04-08T13:24:20;12.90;51.80
30304;DHT22;17112;48.636;10.152;2023-04-08T13:26:46;12.80;51.90
30304;DHT22;17112;48.636;10.152;2023-04-08T13:29:11;12.80;51.50
30304;DHT22;17112;48.636;10.152;2023-04-08T13:31:37;12.70;51.80
30304;DHT22;17112;48.636;10.152;2023-04-08T13:34:03;12.60;51.90
30304;DHT22;17112;48.636;10.152;2023-04-08T13:36:28;12.60;52.20
30304;DHT22;17112;48.636;10.152;2023-04-08T13:38:56;12.60;52.40
30304;DHT22;17112;48.636;10.152;2023-04-08T13:41:21;12.60;52.50
30304;DHT22;17112;48.636;10.152;2023-04-08T13:43:47;12.60;52.60
30304;DHT22;17112;48.636;10.152;2023-04-08T13:46:13;12.50;52.60
30304;DHT22;17112;48.636;10.152;2023-04-08T13:48:38;12.50;52.50
30304;DHT22;17112;48.636;10.152;2023-04-08T13:51:05;12.50;52.80
30304;DHT22;17112;48.636;10.152;2023-04-08T13:53:30;12.40;53.00
30304;DHT22;17112;48.636;10.152;2023-04-08T13:55:56;12.40;53.40
30304;DHT22;17112;48.636;10.152;2023-04-08T13:58:23;12.40;53.90
30304;DHT22;17112;48.636;10.152;2023-04-08T14:00:50;12.30;54.00
30304;DHT22;17112;48.636;10.152;2023-04-08T14:03:16;12.30;54.30
30304;DHT22;17112;48.636;10.152;2023-04-08T14:05:41;12.20;54.70
30304;DHT22;17112;48.636;10.152;2023-04-08T14:08:07;12.20;55.00
30304;DHT22;17112;48.636;10.152;2023-04-08T14:10:33;12.10;55.20
30304;DHT22;17112;48.636;10.152;2023-04-08T14:12:59;12.00;55.40
30304;DHT22;17112;48.636;10.152;2023-04-08T14:15:24;12.00;55.60
30304;DHT22;17112;48.636;10.152;2023-04-08T14:17:50;11.90;55.90
30304;DHT22;17112;48.636;10.152;2023-04-08T14:20:16;11.90;56.30
30304;DHT22;17112;48.636;10.152;2023-04-08T14:22:42;11.80;56.50
30304;DHT22;17112;48.636;10.152;2023-04-08T14:25:08;11.80;56.50
30304;DHT22;17112;48.636;10.152;2023-04-08T14:27:34;11.70;56.50
30304;DHT22;17112;48.636;10.152;2023-04-08T14:29:59;11.60;56.50
30304;DHT22;17112;48.636;10.152;2023-04-08T14:32:25;11.60;56.60
30304;DHT22;17112;48.636;10.152;2023-04-08T14:34:51;11.50;56.90
30304;DHT22;17112;48.636;10.152;2023-04-08T14:37:17;11.50;57.00
30304;DHT22;17112;48.636;10.152;2023-04-08T14:39:43;11.40;57.30
30304;DHT22;17112;48.636;10.152;2023-04-08T14:42:09;11.40;57.40
30304;DHT22;17112;48.636;10.152;2023-04-08T14:44:35;11.30;57.50
30304;DHT22;17112;48.636;10.152;2023-04-08T14:47:02;11.30;57.60
30304;DHT22;17112;48.636;10.152;2023-04-08T14:49:28;11.30;57.60
30304;DHT22;17112;48.636;10.152;2023-04-08T14:51:53;11.30;57.70
30304;DHT22;17112;48.636;10.152;2023-04-08T14:54:19;11.20;57.70
30304;DHT22;17112;48.636;10.152;2023-04-08T14:56:45;11.20;57.80
30304;DHT22;17112;48.636;10.152;2023-04-08T14:59:11;11.20;57.70
30304;DHT22;17112;48.636;10.152;2023-04-08T15:01:36;11.10;57.60
30304;DHT22;17112;48.636;10.152;2023-04-08T15:04:02;11.10;57.60
30304;DHT22;17112;48.636;10.152;2023-04-08T15:06:28;11.10;57.80
30304;DHT22;17112;48.636;10.152;2023-04-08T15:08:54;11.00;58.00
30304;DHT22;17112;48.636;10.152;2023-04-08T15:11:19;11.10;58.30
30304;DHT22;17112;48.636;10.152;2023-04-08T15:13:47;11.00;58.20
30304;DHT22;17112;48.636;10.152;2023-04-08T15:16:12;10.90;58.10
30304;DHT22;17112;48.636;10.152;2023-04-08T15:18:38;10.90;58.30
30304;DHT22;17112;48.636;10.152;2023-04-08T15:21:04;11.00;58.60
30304;DHT22;17112;48.636;10.152;2023-04-08T15:23:30;11.00;59.00
30304;DHT22;17112;48.636;10.152;2023-04-08T15:25:56;11.00;59.00
30304;DHT22;17112;48.636;10.152;2023-04-08T15:28:22;11.00;58.90
30304;DHT22;17112;48.636;10.152;2023-04-08T15:30:48;11.10;59.00
30304;DHT22;17112;48.636;10.152;2023-04-08T15:33:14;11.10;58.90
30304;DHT22;17112;48.636;10.152;2023-04-08T15:35:44;11.20;58.80